sensor_id;sensor_type;location;lat;lon;timestamp;P1;durP1;ratioP1;P2;durP2;ratioP2
6999;SDS011;3540;53.242;10.408;2024-03-23T00:55:58;29.87;;;6.37;;
6999;SDS011;3540;53.242;10.408;2024-03-23T00:58:24;29.33;;;5.83;;
6999;SDS011;3540;53.242;10.408;2024-03-23T01:00:50;23.50;;;5.43;;
6999;SDS011;3540;53.242;10.408;2024-03-23T01:03:15;29.63;;;5.90;;
6999;SDS011;3540;53.242;10.408;2024-03-23T01:05:41;30.23;;;5.90;;
6999;SDS011;3540;53.242;10.408;2024-03-23T01:08:06;32.37;;;5.63;;
6999;SDS011;3540;53.242;10.408;2024-03-23T01:10:32;23.83;;;5.30;;
6999;SDS011;3540;53.242;10.408;2024-03-23T01:12:58;26.80;;;5.50;;
6999;SDS011;3540;53.242;10.408;2024-03-23T01:15:23;29.03;;;5.47;;
6999;SDS011;3540;53.242;10.408;2024-03-23T01:17:49;29.27;;;5.37;;
6999;SDS011;3540;53.242;10.408;2024-03-23T01:20:14;26.50;;;4.90;;
6999;SDS011;3540;53.242;10.408;2024-03-23T01:22:40;30.97;;;5.40;;
6999;SDS011;3540;53.242;10.408;2024-03-23T01:25:06;41.53;;;6.57;;
6999;SDS011;3540;53.242;10.408;2024-03-23T01:27:32;27.97;;;5.20;;
6999;SDS011;3540;53.242;10.408;2024-03-23T01:29:59;33.17;;;5.70;;
6999;SDS011;3540;53.242;10.408;2024-03-23T01:32:25;30.30;;;5.17;;
6999;SDS011;3540;53.242;10.408;2024-03-23T01:34:50;30.20;;;5.67;;
6999;SDS011;3540;53.242;10.408;2024-03-23T01:37:16;24.57;;;5.13;;
6999;SDS011;3540;53.242;10.408;2024-03-23T01:39:41;30.70;;;5.67;;
6999;SDS011;3540;53.242;10.408;2024-03-23T01:42:07;34.47;;;5.77;;
6999;SDS011;3540;53.242;10.408;2024-03-23T01:44:33;34.00;;;5.53;;
6999;SDS011;3540;53.242;10.408;2024-03-23T01:46:58;31.77;;;5.60;;
6999;SDS011;3540;53.242;10.408;2024-03-23T01:49:24;37.80;;;6.00;;
6999;SDS011;3540;53.242;10.408;2024-03-23T01:51:49;32.77;;;5.50;;
6999;SDS011;3540;53.242;10.408;2024-03-23T01:54:15;27.30;;;5.40;;
6999;SDS011;3540;53.242;10.408;2024-03-23T01:56:41;39.67;;;6.70;;
6999;SDS011;3540;53.242;10.408;2024-03-23T01:59:07;31.30;;;5.37;;
6999;SDS011;3540;53.242;10.408;2024-03-23T02:01:34;41.03;;;6.57;;
6999;SDS011;3540;53.242;10.408;2024-03-23T02:04:03;25.43;;;5.07;;
6999;SDS011;3540;53.242;10.408;2024-03-23T02:06:29;27.70;;;5.83;;
6999;SDS011;3540;53.242;10.408;2024-03-23T02:08:56;31.70;;;5.80;;
6999;SDS011;3540;53.242;10.408;2024-03-23T02:11:21;30.90;;;5.43;;
6999;SDS011;3540;53.242;10.408;2024-03-23T02:13:47;34.40;;;5.73;;
6999;SDS011;3540;53.242;10.408;2024-03-23T02:16:13;33.43;;;5.43;;
6999;SDS011;3540;53.242;10.408;2024-03-23T02:18:39;30.17;;;6.00;;
6999;SDS011;3540;53.242;10.408;2024-03-23T02:21:04;36.10;;;6.43;;
6999;SDS011;3540;53.242;10.408;2024-03-23T02:23:30;22.73;;;5.03;;
6999;SDS011;3540;53.242;10.408;2024-03-23T02:25:56;30.20;;;5.13;;
6999;SDS011;3540;53.242;10.408;2024-03-23T02:28:21;30.73;;;5.57;;
6999;SDS011;3540;53.242;10.408;2024-03-23T02:30:50;26.27;;;5.53;;
6999;SDS011;3540;53.242;10.408;2024-03-23T02:33:17;28.60;;;5.90;;
6999;SDS011;3540;53.242;10.408;2024-03-23T02:35:45;24.40;;;4.83;;
6999;SDS011;3540;53.242;10.408;2024-03-23T02:38:11;28.80;;;5.17;;
6999;SDS011;3540;53.242;10.408;2024-03-23T02:40:36;28.30;;;5.63;;
6999;SDS011;3540;53.242;10.408;2024-03-23T02:43:02;29.13;;;5.27;;
6999;SDS011;3540;53.242;10.408;2024-03-23T02:45:29;28.33;;;5.50;;
6999;SDS011;3540;53.242;10.408;2024-03-23T02:47:54;24.87;;;4.83;;
6999;SDS011;3540;53.242;10.408;2024-03-23T02:50:20;24.90;;;5.20;;
6999;SDS011;3540;53.242;10.408;2024-03-23T02:52:46;30.00;;;5.90;;
6999;SDS011;3540;53.242;10.408;2024-03-23T02:55:13;33.20;;;5.77;;
6999;SDS011;3540;53.242;10.408;2024-03-23T02:57:39;32.30;;;5.40;;
6999;SDS011;3540;53.242;10.408;2024-03-23T03:00:05;29.17;;;5.13;;
6999;SDS011;3540;53.242;10.408;2024-03-23T03:02:32;27.90;;;5.37;;
6999;SDS011;3540;53.242;10.408;2024-03-23T03:04:58;25.83;;;4.57;;
6999;SDS011;3540;53.242;10.408;2024-03-23T03:07:23;31.47;;;6.10;;
6999;SDS011;3540;53.242;10.408;2024-03-23T03:09:49;27.97;;;4.93;;
6999;SDS011;3540;53.242;10.408;2024-03-23T03:12:15;34.83;;;5.80;;
6999;SDS011;3540;53.242;10.408;2024-03-23T03:14:40;37.33;;;5.70;;
6999;SDS011;3540;53.242;10.408;2024-03-23T03:17:06;31.53;;;5.60;;
6999;SDS011;3540;53.242;10.408;2024-03-23T03:19:32;29.47;;;5.83;;
6999;SDS011;3540;53.242;10.408;2024-03-23T03:21:57;29.27;;;4.90;;
6999;SDS011;3540;53.242;10.408;2024-03-23T03:24:23;30.03;;;5.60;;
6999;SDS011;3540;53.242;10.408;2024-03-23T03:26:48;31.60;;;6.23;;
6999;SDS011;3540;53.242;10.408;2024-03-23T03:29:15;34.70;;;5.30;;
6999;SDS011;3540;53.242;10.408;2024-03-23T03:31:41;29.40;;;4.83;;
6999;SDS011;3540;53.242;10.408;2024-03-23T03:34:07;31.33;;;5.40;;
6999;SDS011;3540;53.242;10.408;2024-03-23T03:36:33;32.70;;;5.63;;
6999;SDS011;3540;53.242;10.408;2024-03-23T03:38:59;29.87;;;5.13;;
6999;SDS011;3540;53.242;10.408;2024-03-23T03:41:24;22.13;;;4.83;;
6999;SDS011;3540;53.242;10.408;2024-03-23T03:43:50;31.57;;;6.07;;
6999;SDS011;3540;53.242;10.408;2024-03-23T03:46:15;25.87;;;5.17;;
6999;SDS011;3540;53.242;10.408;2024-03-23T03:48:41;26.73;;;5.10;;
6999;SDS011;3540;53.242;10.408;2024-03-23T03:51:07;22.90;;;5.17;;
6999;SDS011;3540;53.242;10.408;2024-03-23T03:53:32;31.23;;;5.43;;
6999;SDS011;3540;53.242;10.408;2024-03-23T03:56:01;22.97;;;5.17;;
6999;SDS011;3540;53.242;10.408;2024-03-23T03:58:27;26.23;;;5.50;;
6999;SDS011;3540;53.242;10.408;2024-03-23T04:00:53;26.27;;;5.17;;
6999;SDS011;3540;53.242;10.408;2024-03-23T04:03:19;29.70;;;5.13;;
6999;SDS011;3540;53.242;10.408;2024-03-23T04:05:52;24.60;;;5.20;;
6999;SDS011;3540;53.242;10.408;2024-03-23T04:08:18;24.20;;;4.60;;
6999;SDS011;3540;53.242;10.408;2024-03-23T04:10:44;23.77;;;5.10;;
6999;SDS011;3540;53.242;10.408;2024-03-23T04:13:10;35.53;;;6.20;;
6999;SDS011;3540;53.242;10.408;2024-03-23T04:15:36;26.00;;;4.70;;
6999;SDS011;3540;53.242;10.408;2024-03-23T04:18:02;26.87;;;5.50;;
6999;SDS011;3540;53.242;10.408;2024-03-23T04:20:28;21.27;;;5.40;;
6999;SDS011;3540;53.242;10.408;2024-03-23T04:22:53;29.33;;;6.40;;
6999;SDS011;3540;53.242;10.408;2024-03-23T04:25:19;26.03;;;5.13;;
6999;SDS011;3540;53.242;10.408;2024-03-23T04:27:44;32.87;;;5.40;;
6999;SDS011;3540;53.242;10.408;2024-03-23T04:30:11;27.67;;;5.17;;
6999;SDS011;3540;53.242;10.408;2024-03-23T04:32:37;29.50;;;5.27;;
6999;SDS011;3540;53.242;10.408;2024-03-23T04:35:04;27.90;;;4.93;;
6999;SDS011;3540;53.242;10.408;2024-03-23T04:37:36;27.37;;;4.67;;
6999;SDS011;3540;53.242;10.408;2024-03-23T04:40:03;31.70;;;6.43;;
6999;SDS011;3540;53.242;10.408;2024-03-23T04:42:29;37.00;;;5.70;;
6999;SDS011;3540;53.242;10.408;2024-03-23T04:44:55;33.80;;;5.30;;
6999;SDS011;3540;53.242;10.408;2024-03-23T04:47:20;30.10;;;5.63;;
6999;SDS011;3540;53.242;10.408;2024-03-23T04:49:46;23.10;;;5.63;;
6999;SDS011;3540;53.242;10.408;2024-03-23T04:52:12;28.17;;;5.43;;
6999;SDS011;3540;53.242;10.408;2024-03-23T04:54:37;26.80;;;5.50;;
6999;SDS011;3540;53.242;10.408;2024-03-23T04:57:05;33.13;;;5.53;;
6999;SDS011;3540;53.242;10.408;2024-03-23T04:59:31;30.53;;;5.90;;
6999;SDS011;3540;53.242;10.408;2024-03-23T05:01:56;34.63;;;6.07;;
6999;SDS011;3540;53.242;10.408;2024-03-23T05:04:22;25.63;;;5.37;;
6999;SDS011;3540;53.242;10.408;2024-03-23T05:06:48;29.23;;;5.33;;
6999;SDS011;3540;53.242;10.408;2024-03-23T05:09:14;30.60;;;5.67;;
6999;SDS011;3540;53.242;10.408;2024-03-23T05:11:39;23.20;;;4.83;;
6999;SDS011;3540;53.242;10.408;2024-03-23T05:14:06;27.17;;;4.80;;
6999;SDS011;3540;53.242;10.408;2024-03-23T05:16:32;26.17;;;5.40;;
6999;SDS011;3540;53.242;10.408;2024-03-23T05:18:58;30.60;;;5.67;;
6999;SDS011;3540;53.242;10.408;2024-03-23T05:21:23;28.53;;;4.73;;
6999;SDS011;3540;53.242;10.408;2024-03-23T05:23:49;36.07;;;6.30;;
6999;SDS011;3540;53.242;10.408;2024-03-23T05:26:16;23.83;;;5.37;;
6999;SDS011;3540;53.242;10.408;2024-03-23T05:28:42;24.43;;;4.90;;
6999;SDS011;3540;53.242;10.408;2024-03-23T05:31:07;20.63;;;5.30;;
6999;SDS011;3540;53.242;10.408;2024-03-23T05:33:35;29.57;;;5.50;;
6999;SDS011;3540;53.242;10.408;2024-03-23T05:36:03;24.53;;;6.03;;
6999;SDS011;3540;53.242;10.408;2024-03-23T05:38:29;29.60;;;5.57;;
6999;SDS011;3540;53.242;10.408;2024-03-23T05:40:57;29.87;;;5.43;;
6999;SDS011;3540;53.242;10.408;2024-03-23T05:43:24;26.33;;;5.63;;
6999;SDS011;3540;53.242;10.408;2024-03-23T05:45:53;34.30;;;6.67;;
6999;SDS011;3540;53.242;10.408;2024-03-23T05:48:19;23.23;;;5.03;;
6999;SDS011;3540;53.242;10.408;2024-03-23T05:50:44;34.03;;;5.23;;
6999;SDS011;3540;53.242;10.408;2024-03-23T05:53:10;25.73;;;6.13;;
6999;SDS011;3540;53.242;10.408;2024-03-23T05:55:37;21.90;;;5.17;;
6999;SDS011;3540;53.242;10.408;2024-03-23T05:58:03;30.67;;;5.90;;
6999;SDS011;3540;53.242;10.408;2024-03-23T06:00:29;25.90;;;5.70;;
6999;SDS011;3540;53.242;10.408;2024-03-23T06:02:54;30.27;;;5.33;;
6999;SDS011;3540;53.242;10.408;2024-03-23T06:05:20;30.57;;;5.70;;
6999;SDS011;3540;53.242;10.408;2024-03-23T06:07:45;25.00;;;5.63;;
6999;SDS011;3540;53.242;10.408;2024-03-23T06:10:11;30.03;;;6.60;;
6999;SDS011;3540;53.242;10.408;2024-03-23T06:12:37;33.97;;;6.97;;
6999;SDS011;3540;53.242;10.408;2024-03-23T06:15:02;24.60;;;6.07;;
6999;SDS011;3540;53.242;10.408;2024-03-23T06:17:28;29.23;;;6.07;;
6999;SDS011;3540;53.242;10.408;2024-03-23T06:19:54;28.70;;;5.77;;
6999;SDS011;3540;53.242;10.408;2024-03-23T06:22:19;24.40;;;5.83;;
6999;SDS011;3540;53.242;10.408;2024-03-23T06:24:45;20.53;;;5.23;;
6999;SDS011;3540;53.242;10.408;2024-03-23T06:27:11;27.10;;;5.07;;
6999;SDS011;3540;53.242;10.408;2024-03-23T06:29:36;23.87;;;5.10;;
6999;SDS011;3540;53.242;10.408;2024-03-23T06:32:02;33.07;;;6.07;;
6999;SDS011;3540;53.242;10.408;2024-03-23T06:34:28;32.60;;;5.23;;
6999;SDS011;3540;53.242;10.408;2024-03-23T06:36:54;26.43;;;5.33;;
6999;SDS011;3540;53.242;10.408;2024-03-23T06:39:19;24.23;;;5.50;;
6999;SDS011;3540;53.242;10.408;2024-03-23T06:41:51;25.93;;;5.37;;
6999;SDS011;3540;53.242;10.408;2024-03-23T06:44:18;27.07;;;5.07;;
6999;SDS011;3540;53.242;10.408;2024-03-23T06:46:44;28.43;;;5.27;;
6999;SDS011;3540;53.242;10.408;2024-03-23T06:49:10;21.47;;;5.27;;
6999;SDS011;3540;53.242;10.408;2024-03-23T06:51:36;28.70;;;6.03;;
6999;SDS011;3540;53.242;10.408;2024-03-23T06:54:03;20.67;;;5.30;;
6999;SDS011;3540;53.242;10.408;2024-03-23T06:56:29;25.63;;;5.73;;
6999;SDS011;3540;53.242;10.408;2024-03-23T06:58:55;19.43;;;5.20;;
6999;SDS011;3540;53.242;10.408;2024-03-23T07:01:21;27.10;;;6.10;;
6999;SDS011;3540;53.242;10.408;2024-03-23T07:03:47;20.33;;;4.60;;
6999;SDS011;3540;53.242;10.408;2024-03-23T07:06:13;17.93;;;4.30;;
6999;SDS011;3540;53.242;10.408;2024-03-23T07:08:38;26.10;;;4.80;;
6999;SDS011;3540;53.242;10.408;2024-03-23T07:11:04;23.80;;;5.67;;
6999;SDS011;3540;53.242;10.408;2024-03-23T07:13:30;23.70;;;5.47;;
6999;SDS011;3540;53.242;10.408;2024-03-23T07:15:56;24.10;;;5.20;;
6999;SDS011;3540;53.242;10.408;2024-03-23T07:18:22;34.67;;;5.80;;
6999;SDS011;3540;53.242;10.408;2024-03-23T07:23:21;27.03;;;6.37;;
6999;SDS011;3540;53.242;10.408;2024-03-23T07:26:03;24.77;;;5.43;;
6999;SDS011;3540;53.242;10.408;2024-03-23T07:28:33;28.47;;;6.07;;
6999;SDS011;3540;53.242;10.408;2024-03-23T07:33:46;22.70;;;5.93;;
6999;SDS011;3540;53.242;10.408;2024-03-23T07:36:13;23.00;;;5.97;;
6999;SDS011;3540;53.242;10.408;2024-03-23T07:38:42;22.70;;;5.47;;
6999;SDS011;3540;53.242;10.408;2024-03-23T07:41:11;29.60;;;5.97;;
6999;SDS011;3540;53.242;10.408;2024-03-23T07:43:39;25.17;;;6.00;;
6999;SDS011;3540;53.242;10.408;2024-03-23T07:46:07;21.73;;;5.13;;
6999;SDS011;3540;53.242;10.408;2024-03-23T07:48:33;31.67;;;5.90;;
6999;SDS011;3540;53.242;10.408;2024-03-23T07:51:03;23.67;;;5.07;;
6999;SDS011;3540;53.242;10.408;2024-03-23T07:53:29;29.40;;;5.67;;
6999;SDS011;3540;53.242;10.408;2024-03-23T07:56:01;28.87;;;5.80;;
6999;SDS011;3540;53.242;10.408;2024-03-23T07:58:28;20.23;;;4.80;;
6999;SDS011;3540;53.242;10.408;2024-03-23T08:00:54;22.47;;;5.20;;
6999;SDS011;3540;53.242;10.408;2024-03-23T08:03:20;29.83;;;4.93;;
6999;SDS011;3540;53.242;10.408;2024-03-23T08:05:46;27.70;;;5.10;;
6999;SDS011;3540;53.242;10.408;2024-03-23T08:08:12;22.77;;;5.27;;
6999;SDS011;3540;53.242;10.408;2024-03-23T08:11:11;29.50;;;5.43;;
6999;SDS011;3540;53.242;10.408;2024-03-23T08:13:30;28.73;;;5.53;;
6999;SDS011;3540;53.242;10.408;2024-03-23T08:15:59;25.77;;;4.93;;
6999;SDS011;3540;53.242;10.408;2024-03-23T08:18:25;20.20;;;5.20;;
6999;SDS011;3540;53.242;10.408;2024-03-23T08:20:58;22.23;;;5.17;;
6999;SDS011;3540;53.242;10.408;2024-03-23T08:23:27;20.33;;;5.50;;
6999;SDS011;3540;53.242;10.408;2024-03-23T08:25:58;23.10;;;4.70;;
6999;SDS011;3540;53.242;10.408;2024-03-23T08:28:24;24.33;;;4.80;;
6999;SDS011;3540;53.242;10.408;2024-03-23T08:30:50;23.23;;;4.57;;
6999;SDS011;3540;53.242;10.408;2024-03-23T08:33:17;19.70;;;4.50;;
6999;SDS011;3540;53.242;10.408;2024-03-23T08:35:42;22.73;;;4.87;;
6999;SDS011;3540;53.242;10.408;2024-03-23T08:38:17;19.67;;;4.27;;
6999;SDS011;3540;53.242;10.408;2024-03-23T08:40:43;21.83;;;4.60;;
6999;SDS011;3540;53.242;10.408;2024-03-23T08:43:08;18.30;;;3.70;;
6999;SDS011;3540;53.242;10.408;2024-03-23T08:45:34;16.20;;;3.83;;
6999;SDS011;3540;53.242;10.408;2024-03-23T08:47:59;20.90;;;4.23;;
6999;SDS011;3540;53.242;10.408;2024-03-23T08:50:25;18.70;;;4.07;;
6999;SDS011;3540;53.242;10.408;2024-03-23T08:52:51;18.50;;;4.07;;
6999;SDS011;3540;53.242;10.408;2024-03-23T08:55:16;13.60;;;3.73;;
6999;SDS011;3540;53.242;10.408;2024-03-23T08:57:42;12.80;;;3.60;;
6999;SDS011;3540;53.242;10.408;2024-03-23T09:00:08;19.27;;;3.57;;
6999;SDS011;3540;53.242;10.408;2024-03-23T09:02:36;16.03;;;3.50;;
6999;SDS011;3540;53.242;10.408;2024-03-23T09:05:02;20.17;;;4.30;;
6999;SDS011;3540;53.242;10.408;2024-03-23T09:07:32;16.50;;;3.63;;
6999;SDS011;3540;53.242;10.408;2024-03-23T09:09:58;14.47;;;4.10;;
6999;SDS011;3540;53.242;10.408;2024-03-23T09:12:23;15.43;;;3.53;;
6999;SDS011;3540;53.242;10.408;2024-03-23T09:14:52;20.37;;;3.90;;
6999;SDS011;3540;53.242;10.408;2024-03-23T09:17:18;18.07;;;3.90;;
6999;SDS011;3540;53.242;10.408;2024-03-23T09:19:44;11.90;;;3.17;;
6999;SDS011;3540;53.242;10.408;2024-03-23T09:22:09;14.67;;;3.60;;
6999;SDS011;3540;53.242;10.408;2024-03-23T09:24:35;18.50;;;3.77;;
6999;SDS011;3540;53.242;10.408;2024-03-23T09:27:01;17.80;;;3.57;;
6999;SDS011;3540;53.242;10.408;2024-03-23T09:29:28;15.83;;;3.43;;
6999;SDS011;3540;53.242;10.408;2024-03-23T09:31:53;17.80;;;3.63;;
6999;SDS011;3540;53.242;10.408;2024-03-23T09:34:19;14.80;;;3.43;;
6999;SDS011;3540;53.242;10.408;2024-03-23T09:36:45;15.33;;;3.37;;
6999;SDS011;3540;53.242;10.408;2024-03-23T09:39:10;15.07;;;3.30;;
6999;SDS011;3540;53.242;10.408;2024-03-23T09:41:36;13.90;;;3.47;;
6999;SDS011;3540;53.242;10.408;2024-03-23T09:44:02;15.30;;;3.30;;
6999;SDS011;3540;53.242;10.408;2024-03-23T09:46:27;15.97;;;3.37;;
6999;SDS011;3540;53.242;10.408;2024-03-23T09:48:59;14.03;;;3.37;;
6999;SDS011;3540;53.242;10.408;2024-03-23T09:51:26;14.90;;;3.57;;
6999;SDS011;3540;53.242;10.408;2024-03-23T09:53:51;16.43;;;3.10;;
6999;SDS011;3540;53.242;10.408;2024-03-23T09:56:18;14.47;;;3.50;;
6999;SDS011;3540;53.242;10.408;2024-03-23T09:58:43;12.23;;;2.40;;
6999;SDS011;3540;53.242;10.408;2024-03-23T10:01:09;12.47;;;2.47;;
6999;SDS011;3540;53.242;10.408;2024-03-23T10:03:42;15.73;;;2.80;;
6999;SDS011;3540;53.242;10.408;2024-03-23T10:06:14;13.63;;;3.10;;
6999;SDS011;3540;53.242;10.408;2024-03-23T10:08:46;14.70;;;3.90;;
6999;SDS011;3540;53.242;10.408;2024-03-23T10:11:15;10.73;;;3.13;;
6999;SDS011;3540;53.242;10.408;2024-03-23T10:13:42;12.07;;;3.20;;
6999;SDS011;3540;53.242;10.408;2024-03-23T10:16:08;12.57;;;2.90;;
6999;SDS011;3540;53.242;10.408;2024-03-23T10:18:38;11.13;;;2.73;;
6999;SDS011;3540;53.242;10.408;2024-03-23T10:21:10;9.57;;;2.90;;
6999;SDS011;3540;53.242;10.408;2024-03-23T10:23:41;11.77;;;3.03;;
6999;SDS011;3540;53.242;10.408;2024-03-23T10:28:59;13.63;;;3.13;;
6999;SDS011;3540;53.242;10.408;2024-03-23T10:31:32;17.00;;;3.50;;
6999;SDS011;3540;53.242;10.408;2024-03-23T10:34:02;12.13;;;2.70;;
6999;SDS011;3540;53.242;10.408;2024-03-23T10:36:28;10.60;;;2.50;;
6999;SDS011;3540;53.242;10.408;2024-03-23T10:38:55;10.27;;;2.20;;
6999;SDS011;3540;53.242;10.408;2024-03-23T10:41:24;9.97;;;2.60;;
6999;SDS011;3540;53.242;10.408;2024-03-23T10:43:52;7.53;;;2.50;;
6999;SDS011;3540;53.242;10.408;2024-03-23T10:46:20;12.67;;;2.53;;
6999;SDS011;3540;53.242;10.408;2024-03-23T10:48:48;12.77;;;2.90;;
6999;SDS011;3540;53.242;10.408;2024-03-23T10:51:14;9.00;;;2.70;;
6999;SDS011;3540;53.242;10.408;2024-03-23T10:53:40;12.57;;;2.37;;
6999;SDS011;3540;53.242;10.408;2024-03-23T10:56:06;10.43;;;2.40;;
6999;SDS011;3540;53.242;10.408;2024-03-23T10:58:38;9.17;;;2.40;;
6999;SDS011;3540;53.242;10.408;2024-03-23T11:01:06;9.60;;;2.90;;
6999;SDS011;3540;53.242;10.408;2024-03-23T11:06:04;12.13;;;2.63;;
6999;SDS011;3540;53.242;10.408;2024-03-23T11:08:31;9.90;;;3.00;;
6999;SDS011;3540;53.242;10.408;2024-03-23T11:11:11;12.60;;;2.30;;
6999;SDS011;3540;53.242;10.408;2024-03-23T11:13:44;11.63;;;2.60;;
6999;SDS011;3540;53.242;10.408;2024-03-23T11:16:30;10.73;;;2.63;;
6999;SDS011;3540;53.242;10.408;2024-03-23T11:22:10;10.00;;;2.93;;
6999;SDS011;3540;53.242;10.408;2024-03-23T11:24:35;8.77;;;2.67;;
6999;SDS011;3540;53.242;10.408;2024-03-23T11:27:02;8.40;;;2.23;;
6999;SDS011;3540;53.242;10.408;2024-03-23T11:29:40;10.10;;;2.87;;
6999;SDS011;3540;53.242;10.408;2024-03-23T11:32:07;9.37;;;2.33;;
6999;SDS011;3540;53.242;10.408;2024-03-23T11:34:35;10.60;;;2.47;;
6999;SDS011;3540;53.242;10.408;2024-03-23T11:37:04;8.90;;;2.70;;
6999;SDS011;3540;53.242;10.408;2024-03-23T11:39:31;10.73;;;2.70;;
6999;SDS011;3540;53.242;10.408;2024-03-23T11:41:56;9.97;;;2.60;;
6999;SDS011;3540;53.242;10.408;2024-03-23T11:44:23;7.40;;;2.47;;
6999;SDS011;3540;53.242;10.408;2024-03-23T11:46:51;9.67;;;2.60;;
6999;SDS011;3540;53.242;10.408;2024-03-23T11:49:23;8.60;;;2.07;;
6999;SDS011;3540;53.242;10.408;2024-03-23T11:51:49;4.90;;;2.07;;
6999;SDS011;3540;53.242;10.408;2024-03-23T11:54:16;8.97;;;2.40;;
6999;SDS011;3540;53.242;10.408;2024-03-23T11:56:57;13.70;;;2.80;;
6999;SDS011;3540;53.242;10.408;2024-03-23T11:59:33;7.37;;;2.40;;
6999;SDS011;3540;53.242;10.408;2024-03-23T12:02:00;6.33;;;1.90;;
6999;SDS011;3540;53.242;10.408;2024-03-23T12:04:31;7.63;;;2.27;;
6999;SDS011;3540;53.242;10.408;2024-03-23T12:10:04;4.47;;;1.60;;
6999;SDS011;3540;53.242;10.408;2024-03-23T12:12:31;3.90;;;1.70;;
6999;SDS011;3540;53.242;10.408;2024-03-23T12:15:06;6.87;;;1.60;;
6999;SDS011;3540;53.242;10.408;2024-03-23T12:17:33;9.67;;;2.33;;
6999;SDS011;3540;53.242;10.408;2024-03-23T12:20:02;5.90;;;2.33;;
6999;SDS011;3540;53.242;10.408;2024-03-23T12:22:29;6.77;;;2.30;;
6999;SDS011;3540;53.242;10.408;2024-03-23T12:24:54;6.53;;;2.40;;
6999;SDS011;3540;53.242;10.408;2024-03-23T12:27:20;12.20;;;2.57;;
6999;SDS011;3540;53.242;10.408;2024-03-23T12:29:46;6.40;;;2.17;;
6999;SDS011;3540;53.242;10.408;2024-03-23T12:32:12;6.67;;;2.30;;
6999;SDS011;3540;53.242;10.408;2024-03-23T12:34:39;9.53;;;2.70;;
6999;SDS011;3540;53.242;10.408;2024-03-23T12:37:05;10.17;;;2.60;;
6999;SDS011;3540;53.242;10.408;2024-03-23T12:39:34;8.17;;;2.67;;
6999;SDS011;3540;53.242;10.408;2024-03-23T12:42:00;10.03;;;2.57;;
6999;SDS011;3540;53.242;10.408;2024-03-23T12:44:28;7.30;;;2.27;;
6999;SDS011;3540;53.242;10.408;2024-03-23T12:46:53;8.50;;;2.40;;
6999;SDS011;3540;53.242;10.408;2024-03-23T12:49:19;7.47;;;2.50;;
6999;SDS011;3540;53.242;10.408;2024-03-23T12:54:40;7.47;;;2.30;;
6999;SDS011;3540;53.242;10.408;2024-03-23T12:57:05;6.87;;;2.23;;
6999;SDS011;3540;53.242;10.408;2024-03-23T12:59:31;11.17;;;2.73;;
6999;SDS011;3540;53.242;10.408;2024-03-23T13:01:59;5.87;;;2.23;;
6999;SDS011;3540;53.242;10.408;2024-03-23T13:04:24;6.73;;;2.47;;
6999;SDS011;3540;53.242;10.408;2024-03-23T13:06:50;8.63;;;2.23;;
6999;SDS011;3540;53.242;10.408;2024-03-23T13:09:19;7.33;;;2.33;;
6999;SDS011;3540;53.242;10.408;2024-03-23T13:11:45;8.07;;;2.40;;
6999;SDS011;3540;53.242;10.408;2024-03-23T13:14:10;5.47;;;2.40;;
6999;SDS011;3540;53.242;10.408;2024-03-23T13:16:36;7.93;;;2.30;;
6999;SDS011;3540;53.242;10.408;2024-03-23T13:19:01;8.53;;;2.27;;
6999;SDS011;3540;53.242;10.408;2024-03-23T13:21:28;6.10;;;1.80;;
6999;SDS011;3540;53.242;10.408;2024-03-23T13:23:53;3.60;;;1.40;;
6999;SDS011;3540;53.242;10.408;2024-03-23T13:26:20;5.47;;;1.80;;
6999;SDS011;3540;53.242;10.408;2024-03-23T13:28:45;2.10;;;1.40;;
6999;SDS011;3540;53.242;10.408;2024-03-23T13:31:11;2.53;;;1.60;;
6999;SDS011;3540;53.242;10.408;2024-03-23T13:33:37;4.60;;;1.60;;
6999;SDS011;3540;53.242;10.408;2024-03-23T13:36:02;6.20;;;1.83;;
6999;SDS011;3540;53.242;10.408;2024-03-23T13:38:28;6.10;;;1.90;;
6999;SDS011;3540;53.242;10.408;2024-03-23T13:40:55;4.90;;;1.73;;
6999;SDS011;3540;53.242;10.408;2024-03-23T13:43:22;5.43;;;1.70;;
6999;SDS011;3540;53.242;10.408;2024-03-23T13:45:49;4.03;;;1.80;;
6999;SDS011;3540;53.242;10.408;2024-03-23T13:48:18;5.47;;;1.83;;
6999;SDS011;3540;53.242;10.408;2024-03-23T13:50:45;4.57;;;1.97;;
6999;SDS011;3540;53.242;10.408;2024-03-23T13:53:13;5.07;;;1.80;;
6999;SDS011;3540;53.242;10.408;2024-03-23T13:55:45;7.03;;;1.90;;
6999;SDS011;3540;53.242;10.408;2024-03-23T13:58:13;10.93;;;2.37;;
6999;SDS011;3540;53.242;10.408;2024-03-23T14:00:39;2.93;;;1.90;;
6999;SDS011;3540;53.242;10.408;2024-03-23T14:03:05;5.40;;;1.93;;
6999;SDS011;3540;53.242;10.408;2024-03-23T14:05:30;4.97;;;1.70;;
6999;SDS011;3540;53.242;10.408;2024-03-23T14:07:56;3.40;;;1.40;;
6999;SDS011;3540;53.242;10.408;2024-03-23T14:10:21;3.73;;;1.43;;
6999;SDS011;3540;53.242;10.408;2024-03-23T14:12:47;6.37;;;1.83;;
6999;SDS011;3540;53.242;10.408;2024-03-23T14:15:13;4.33;;;1.57;;
6999;SDS011;3540;53.242;10.408;2024-03-23T14:17:38;2.60;;;1.50;;
6999;SDS011;3540;53.242;10.408;2024-03-23T14:20:04;3.73;;;1.23;;
6999;SDS011;3540;53.242;10.408;2024-03-23T14:22:31;5.33;;;1.87;;
6999;SDS011;3540;53.242;10.408;2024-03-23T14:24:57;3.77;;;1.50;;
6999;SDS011;3540;53.242;10.408;2024-03-23T14:27:23;3.93;;;1.40;;
6999;SDS011;3540;53.242;10.408;2024-03-23T14:29:49;5.67;;;1.67;;
6999;SDS011;3540;53.242;10.408;2024-03-23T14:32:15;5.43;;;1.60;;
6999;SDS011;3540;53.242;10.408;2024-03-23T14:34:41;6.30;;;1.57;;
6999;SDS011;3540;53.242;10.408;2024-03-23T14:37:06;5.47;;;1.60;;
6999;SDS011;3540;53.242;10.408;2024-03-23T14:39:32;4.67;;;1.57;;
6999;SDS011;3540;53.242;10.408;2024-03-23T14:42:02;5.10;;;1.47;;
6999;SDS011;3540;53.242;10.408;2024-03-23T14:44:28;2.83;;;1.37;;
6999;SDS011;3540;53.242;10.408;2024-03-23T14:46:54;3.07;;;1.20;;
6999;SDS011;3540;53.242;10.408;2024-03-23T14:49:20;3.67;;;1.57;;
6999;SDS011;3540;53.242;10.408;2024-03-23T14:51:46;4.30;;;1.40;;
6999;SDS011;3540;53.242;10.408;2024-03-23T14:54:12;4.77;;;1.53;;
6999;SDS011;3540;53.242;10.408;2024-03-23T14:56:38;5.43;;;1.57;;
6999;SDS011;3540;53.242;10.408;2024-03-23T14:59:04;4.50;;;1.50;;
6999;SDS011;3540;53.242;10.408;2024-03-23T15:01:30;4.73;;;1.80;;
6999;SDS011;3540;53.242;10.408;2024-03-23T15:03:55;5.20;;;1.80;;
6999;SDS011;3540;53.242;10.408;2024-03-23T15:06:21;2.37;;;1.20;;
6999;SDS011;3540;53.242;10.408;2024-03-23T15:08:46;3.50;;;1.50;;
6999;SDS011;3540;53.242;10.408;2024-03-23T15:11:12;4.80;;;1.30;;
6999;SDS011;3540;53.242;10.408;2024-03-23T15:13:38;6.13;;;1.40;;
6999;SDS011;3540;53.242;10.408;2024-03-23T15:16:04;3.90;;;1.50;;
6999;SDS011;3540;53.242;10.408;2024-03-23T15:18:30;6.07;;;1.40;;
6999;SDS011;3540;53.242;10.408;2024-03-23T15:20:58;6.90;;;1.53;;
6999;SDS011;3540;53.242;10.408;2024-03-23T15:23:27;4.87;;;1.57;;
6999;SDS011;3540;53.242;10.408;2024-03-23T15:25:57;5.23;;;1.50;;
6999;SDS011;3540;53.242;10.408;2024-03-23T15:28:23;5.23;;;1.70;;
6999;SDS011;3540;53.242;10.408;2024-03-23T15:30:51;5.90;;;1.60;;
6999;SDS011;3540;53.242;10.408;2024-03-23T15:33:17;2.77;;;1.50;;
6999;SDS011;3540;53.242;10.408;2024-03-23T15:35:42;4.50;;;1.60;;
6999;SDS011;3540;53.242;10.408;2024-03-23T15:38:08;6.87;;;2.00;;
6999;SDS011;3540;53.242;10.408;2024-03-23T15:40:37;4.50;;;1.93;;
6999;SDS011;3540;53.242;10.408;2024-03-23T15:43:03;3.53;;;1.40;;
6999;SDS011;3540;53.242;10.408;2024-03-23T15:45:28;5.20;;;1.60;;
6999;SDS011;3540;53.242;10.408;2024-03-23T15:47:54;3.83;;;1.40;;
6999;SDS011;3540;53.242;10.408;2024-03-23T15:50:20;3.80;;;1.57;;
6999;SDS011;3540;53.242;10.408;2024-03-23T15:52:45;4.67;;;1.57;;
6999;SDS011;3540;53.242;10.408;2024-03-23T15:55:11;5.27;;;1.67;;
6999;SDS011;3540;53.242;10.408;2024-03-23T15:57:36;2.43;;;1.40;;
6999;SDS011;3540;53.242;10.408;2024-03-23T16:00:02;3.47;;;1.30;;
6999;SDS011;3540;53.242;10.408;2024-03-23T16:02:29;3.90;;;1.40;;
6999;SDS011;3540;53.242;10.408;2024-03-23T16:04:54;2.43;;;1.40;;